Time;durP1;ratioP1;P1;durP2;ratioP2;P2;SDS_P1;SDS_P2;PMS_P1;PMS_P2;Temp;Humidity;BMP_temperature;BMP_pressure;BME280_temperature;BME280_humidity;BME280_pressure;Samples;Min_cycle;Max_cycle;Signal;HPM_P1;HPM_P2
2022/04/16 00:00:17;;;;;;;;;;;12.10;97.70;;;;;;5031874;28;19933;-67
2022/04/16 00:02:47;;;;;;;;;;;12.00;97.60;;;;;;5031336;28;19929;-68
2022/04/16 00:05:14;;;;;;;;;;;12.10;98.00;;;;;;5027725;28;20371;-67
2022/04/16 00:07:42;;;;;;;;;;;12.00;98.10;;;;;;5035806;28;19935;-67
2022/04/16 00:10:09;;;;;;;;;;;12.00;98.20;;;;;;5036882;28;19978;-68
2022/04/16 00:12:36;;;;;;;;;;;11.90;98.10;;;;;;5034443;28;19933;-66
2022/04/16 00:15:06;;;;;;;;;;;11.90;98.20;;;;;;5030610;28;19937;-67
2022/04/16 00:17:36;;;;;;;;;;;11.90;98.50;;;;;;5036013;28;19929;-66
2022/04/16 00:20:07;;;;;;;;;;;11.80;98.60;;;;;;5032385;28;19936;-67
2022/04/16 00:22:34;;;;;;;;;;;11.80;98.60;;;;;;5032896;28;19929;-67
2022/04/16 00:25:01;;;;;;;;;;;11.80;98.80;;;;;;5030653;28;19998;-67
2022/04/16 00:27:28;;;;;;;;;;;11.70;98.90;;;;;;5032144;28;19929;-67
2022/04/16 00:29:55;;;;;;;;;;;11.70;98.90;;;;;;5032888;28;20289;-67
2022/04/16 00:32:22;;;;;;;;;;;11.70;99.40;;;;;;5033901;28;20276;-67
2022/04/16 00:34:49;;;;;;;;;;;11.60;99.60;;;;;;5034987;28;20387;-67
2022/04/16 00:37:17;;;;;;;;;;;11.60;99.50;;;;;;5016721;28;21033;-66
2022/04/16 00:39:44;;;;;;;;;;;11.50;99.60;;;;;;5030562;28;19929;-67
2022/04/16 00:42:11;;;;;;;;;;;11.50;99.60;;;;;;5032452;28;20982;-67
2022/04/16 00:44:39;;;;;;;;;;;11.50;99.70;;;;;;5032009;28;20506;-67
2022/04/16 00:47:05;;;;;;;;;;;11.40;99.70;;;;;;5030244;28;19933;-67
2022/04/16 00:49:33;;;;;;;;;;;11.40;99.70;;;;;;5033383;28;20013;-67
2022/04/16 00:52:01;;;;;;;;;;;11.40;99.80;;;;;;5031414;28;20015;-67
2022/04/16 00:54:29;;;;;;;;;;;11.30;99.90;;;;;;5033269;28;19955;-67
2022/04/16 00:56:56;;;;;;;;;;;11.30;99.90;;;;;;5031975;28;20027;-67
2022/04/16 00:59:23;;;;;;;;;;;11.30;99.90;;;;;;5039300;28;19937;-66
2022/04/16 01:01:50;;;;;;;;;;;11.20;99.90;;;;;;5035934;28;20372;-67
2022/04/16 01:04:17;;;;;;;;;;;11.20;99.90;;;;;;5038948;28;19931;-67
2022/04/16 01:06:48;;;;;;;;;;;11.10;99.90;;;;;;5037592;28;19954;-67
2022/04/16 01:09:16;;;;;;;;;;;11.10;99.90;;;;;;5034510;28;19936;-67
2022/04/16 01:11:44;;;;;;;;;;;11.10;99.90;;;;;;5033589;28;19971;-67
2022/04/16 01:14:11;;;;;;;;;;;11.10;99.90;;;;;;5033498;28;19964;-67
2022/04/16 01:16:38;;;;;;;;;;;11.10;99.90;;;;;;5036007;28;20385;-67
2022/04/16 01:19:08;;;;;;;;;;;11.10;99.90;;;;;;5037688;28;20463;-67
2022/04/16 01:21:35;;;;;;;;;;;11.00;99.90;;;;;;5032311;28;19924;-67
2022/04/16 01:24:02;;;;;;;;;;;11.00;99.90;;;;;;5035226;28;19936;-67
2022/04/16 01:26:29;;;;;;;;;;;11.00;99.90;;;;;;5035161;28;20365;-67
2022/04/16 01:28:56;;;;;;;;;;;11.00;99.90;;;;;;5032562;28;20490;-67
2022/04/16 01:31:26;;;;;;;;;;;10.90;99.90;;;;;;5031775;28;19936;-67
2022/04/16 01:33:52;;;;;;;;;;;10.90;99.90;;;;;;5037333;28;19936;-67
2022/04/16 01:36:19;;;;;;;;;;;10.90;99.90;;;;;;5035935;28;20277;-67
2022/04/16 01:38:46;;;;;;;;;;;10.80;99.90;;;;;;5038776;28;20548;-67
2022/04/16 01:41:13;;;;;;;;;;;10.80;99.90;;;;;;5032925;28;19941;-67
2022/04/16 01:43:40;;;;;;;;;;;10.80;99.90;;;;;;5031871;28;19936;-67
2022/04/16 01:46:07;;;;;;;;;;;10.80;99.90;;;;;;5033681;28;19939;-67
2022/04/16 01:48:34;;;;;;;;;;;10.80;99.90;;;;;;5030725;28;19929;-67
2022/04/16 01:51:01;;;;;;;;;;;10.80;99.90;;;;;;5039132;28;19964;-67
2022/04/16 01:53:28;;;;;;;;;;;10.80;99.90;;;;;;5049133;28;20638;-67
2022/04/16 01:55:55;;;;;;;;;;;10.80;99.90;;;;;;5034736;28;20608;-67
2022/04/16 01:58:22;;;;;;;;;;;10.70;99.90;;;;;;5031025;28;19925;-67
2022/04/16 02:00:49;;;;;;;;;;;10.70;99.90;;;;;;5038105;28;20326;-67
2022/04/16 02:03:16;;;;;;;;;;;10.60;99.90;;;;;;5035301;28;19929;-68
2022/04/16 02:05:43;;;;;;;;;;;10.60;99.90;;;;;;5031473;28;19960;-67
2022/04/16 02:08:10;;;;;;;;;;;10.60;99.90;;;;;;5024180;28;20466;-67
2022/04/16 02:10:37;;;;;;;;;;;10.60;99.90;;;;;;5037532;28;19936;-67
2022/04/16 02:13:04;;;;;;;;;;;10.50;99.90;;;;;;5030003;28;19929;-66
2022/04/16 02:15:31;;;;;;;;;;;10.50;99.90;;;;;;5032877;28;19991;-67
2022/04/16 02:17:58;;;;;;;;;;;10.50;99.90;;;;;;5032491;28;19941;-67
2022/04/16 02:20:25;;;;;;;;;;;10.50;99.90;;;;;;5033247;28;20376;-67
2022/04/16 02:22:52;;;;;;;;;;;10.50;99.90;;;;;;5034043;28;19936;-67
2022/04/16 02:25:20;;;;;;;;;;;10.40;99.90;;;;;;5033681;28;19928;-67
2022/04/16 02:27:47;;;;;;;;;;;10.40;99.90;;;;;;5031591;28;19939;-67
2022/04/16 02:30:14;;;;;;;;;;;10.40;99.90;;;;;;5037741;28;19925;-67
2022/04/16 02:32:54;;;;;;;;;;;10.40;99.90;;;;;;5038530;28;19925;-67
2022/04/16 02:35:22;;;;;;;;;;;10.30;99.90;;;;;;5033312;28;19925;-67
2022/04/16 02:37:49;;;;;;;;;;;10.30;99.90;;;;;;5032869;28;20423;-67
2022/04/16 02:40:16;;;;;;;;;;;10.30;99.90;;;;;;5021878;28;20370;-67
2022/04/16 02:42:45;;;;;;;;;;;10.20;99.90;;;;;;5035801;28;20482;-67
2022/04/16 02:47:59;;;;;;;;;;;10.20;99.90;;;;;;5032054;28;19978;-66
2022/04/16 02:50:28;;;;;;;;;;;10.10;99.90;;;;;;5032179;28;19940;-67
2022/04/16 02:52:55;;;;;;;;;;;10.10;99.90;;;;;;5032065;28;20012;-67
2022/04/16 02:55:22;;;;;;;;;;;10.20;99.90;;;;;;5037155;28;19978;-67
2022/04/16 02:57:50;;;;;;;;;;;10.10;99.90;;;;;;5048344;28;19987;-67
2022/04/16 03:00:17;;;;;;;;;;;10.00;99.90;;;;;;5033854;28;19987;-67
2022/04/16 03:02:44;;;;;;;;;;;10.00;99.90;;;;;;5035019;28;19929;-67
2022/04/16 03:05:11;;;;;;;;;;;10.00;99.90;;;;;;5034297;28;19933;-67
2022/04/16 03:07:38;;;;;;;;;;;10.00;99.90;;;;;;5032609;28;19933;-67
2022/04/16 03:10:06;;;;;;;;;;;10.00;99.90;;;;;;5033385;28;19941;-66
2022/04/16 03:12:59;;;;;;;;;;;9.90;99.90;;;;;;5035888;28;20802;-66
2022/04/16 03:18:12;;;;;;;;;;;9.90;99.90;;;;;;5033125;28;19932;-68
2022/04/16 03:20:40;;;;;;;;;;;9.80;99.90;;;;;;5033503;28;19932;-67
2022/04/16 03:23:07;;;;;;;;;;;9.80;99.90;;;;;;5031046;28;19941;-67
2022/04/16 03:25:34;;;;;;;;;;;9.80;99.90;;;;;;5030604;28;19932;-66
2022/04/16 03:28:03;;;;;;;;;;;9.80;99.90;;;;;;5035203;28;19932;-66
2022/04/16 03:30:30;;;;;;;;;;;9.80;99.90;;;;;;5046055;28;19929;-66
2022/04/16 03:32:57;;;;;;;;;;;9.80;99.90;;;;;;5031832;28;19929;-66
2022/04/16 03:35:24;;;;;;;;;;;9.80;99.90;;;;;;5031492;28;20931;-66
2022/04/16 03:37:51;;;;;;;;;;;9.80;99.90;;;;;;5031835;28;19986;-66
2022/04/16 03:40:19;;;;;;;;;;;9.80;99.90;;;;;;5020125;28;19975;-66
2022/04/16 03:42:50;;;;;;;;;;;9.80;99.90;;;;;;5019161;28;19932;-66
2022/04/16 03:45:21;;;;;;;;;;;9.80;99.90;;;;;;5032703;28;20225;-66
2022/04/16 03:47:48;;;;;;;;;;;9.80;99.90;;;;;;5036444;28;19924;-66
2022/04/16 03:50:16;;;;;;;;;;;9.80;99.90;;;;;;5023514;28;19929;-66
2022/04/16 03:52:44;;;;;;;;;;;9.80;99.90;;;;;;5017457;28;20842;-66
2022/04/16 04:01:03;;;;;;;;;;;9.80;99.90;;;;;;5032952;28;20474;-66
2022/04/16 04:03:30;;;;;;;;;;;9.80;99.90;;;;;;5028923;28;19929;-66
2022/04/16 04:06:00;;;;;;;;;;;9.80;99.90;;;;;;5032404;28;19932;-66
2022/04/16 04:08:27;;;;;;;;;;;9.80;99.90;;;;;;5029038;28;19933;-66
2022/04/16 04:10:54;;;;;;;;;;;9.90;99.90;;;;;;5033536;28;20265;-66
2022/04/16 04:13:21;;;;;;;;;;;9.80;99.90;;;;;;5035162;28;19937;-67
2022/04/16 04:15:48;;;;;;;;;;;9.80;99.90;;;;;;5034618;28;19983;-66
2022/04/16 04:18:15;;;;;;;;;;;9.80;99.90;;;;;;5033876;28;19932;-67
2022/04/16 04:20:42;;;;;;;;;;;9.80;99.90;;;;;;5035491;28;19983;-67
2022/04/16 04:23:09;;;;;;;;;;;9.90;99.90;;;;;;5034791;28;19972;-66
2022/04/16 04:25:36;;;;;;;;;;;9.90;99.90;;;;;;5032548;28;19983;-66
2022/04/16 04:28:03;;;;;;;;;;;10.00;99.90;;;;;;5031964;28;20392;-66
2022/04/16 04:30:30;;;;;;;;;;;10.00;99.90;;;;;;5032045;28;19933;-67
2022/04/16 04:32:58;;;;;;;;;;;9.90;99.90;;;;;;5035903;28;20015;-66
2022/04/16 04:35:26;;;;;;;;;;;9.90;99.90;;;;;;5036916;28;20010;-66
2022/04/16 04:37:53;;;;;;;;;;;9.90;99.90;;;;;;5034889;28;19932;-67
2022/04/16 04:40:20;;;;;;;;;;;9.90;99.90;;;;;;5036847;28;20624;-66
2022/04/16 04:42:47;;;;;;;;;;;9.90;99.90;;;;;;5033769;28;19925;-67
2022/04/16 04:45:14;;;;;;;;;;;9.90;99.90;;;;;;5034849;28;21228;-66
2022/04/16 04:47:41;;;;;;;;;;;9.90;99.90;;;;;;5032100;28;19932;-65
2022/04/16 04:50:09;;;;;;;;;;;9.80;99.90;;;;;;5033425;28;19971;-66
2022/04/16 04:52:37;;;;;;;;;;;9.80;99.90;;;;;;5034410;28;20058;-66
2022/04/16 04:55:06;;;;;;;;;;;9.80;99.90;;;;;;5034486;28;19937;-66
2022/04/16 04:57:33;;;;;;;;;;;9.70;99.90;;;;;;5034152;28;19932;-66
2022/04/16 05:00:00;;;;;;;;;;;9.80;99.90;;;;;;5034550;28;19967;-66
2022/04/16 05:02:26;;;;;;;;;;;9.80;99.90;;;;;;4990032;28;19939;-66
2022/04/16 05:04:56;;;;;;;;;;;9.70;99.90;;;;;;4990847;28;20010;-67
2022/04/16 05:07:23;;;;;;;;;;;9.80;99.90;;;;;;4997487;28;19933;-66
2022/04/16 05:09:50;;;;;;;;;;;9.80;99.90;;;;;;4990931;28;19937;-66
2022/04/16 05:12:18;;;;;;;;;;;9.80;99.90;;;;;;4981018;28;20096;-66
2022/04/16 05:14:45;;;;;;;;;;;9.80;99.90;;;;;;4991125;28;19940;-67
2022/04/16 05:17:12;;;;;;;;;;;9.90;99.90;;;;;;4991476;28;22687;-66
2022/04/16 05:19:39;;;;;;;;;;;9.80;99.90;;;;;;4989707;28;20057;-66
2022/04/16 05:22:06;;;;;;;;;;;9.80;99.90;;;;;;4989760;28;20688;-66
2022/04/16 05:24:33;;;;;;;;;;;9.90;99.90;;;;;;4972196;28;19933;-67
2022/04/16 05:27:00;;;;;;;;;;;9.80;99.90;;;;;;4990674;28;20028;-67
2022/04/16 05:29:48;;;;;;;;;;;9.80;99.90;;;;;;4991479;28;19932;-68
2022/04/16 05:32:19;;;;;;;;;;;9.80;99.90;;;;;;4990217;28;20607;-66
2022/04/16 05:34:46;;;;;;;;;;;9.80;99.90;;;;;;4989507;28;19932;-66
2022/04/16 05:37:13;;;;;;;;;;;9.80;99.90;;;;;;4991633;28;19982;-66
2022/04/16 05:39:40;;;;;;;;;;;9.70;99.90;;;;;;4988001;28;19933;-66
2022/04/16 05:42:08;;;;;;;;;;;9.80;99.90;;;;;;4989973;28;20071;-66
2022/04/16 05:44:35;;;;;;;;;;;9.80;99.90;;;;;;4974604;28;20683;-67
2022/04/16 05:47:02;;;;;;;;;;;9.90;99.90;;;;;;4991692;28;19941;-68
2022/04/16 05:49:30;;;;;;;;;;;9.90;99.90;;;;;;4991009;28;19940;-66
2022/04/16 05:51:58;;;;;;;;;;;10.00;99.90;;;;;;4989097;28;20314;-68
2022/04/16 05:54:25;;;;;;;;;;;10.10;99.90;;;;;;4991174;28;19933;-66
2022/04/16 05:56:53;;;;;;;;;;;10.20;99.50;;;;;;4988835;28;20047;-66
2022/04/16 05:59:22;;;;;;;;;;;10.20;99.00;;;;;;4990500;28;19940;-67
2022/04/16 06:01:49;;;;;;;;;;;10.30;98.50;;;;;;4984399;28;22346;-69
2022/04/16 06:04:17;;;;;;;;;;;10.30;98.00;;;;;;4987722;28;20158;-68
2022/04/16 06:06:46;;;;;;;;;;;10.30;98.30;;;;;;4972773;28;19976;-68
2022/04/16 06:09:13;;;;;;;;;;;10.30;98.20;;;;;;4990263;28;20486;-68
2022/04/16 06:11:42;;;;;;;;;;;10.30;97.60;;;;;;4989726;28;19933;-68
2022/04/16 06:14:09;;;;;;;;;;;10.40;97.90;;;;;;4986800;28;19932;-68
2022/04/16 06:16:37;;;;;;;;;;;10.30;98.10;;;;;;4991688;28;19932;-68
2022/04/16 06:19:04;;;;;;;;;;;10.30;97.80;;;;;;4989905;28;20016;-67
2022/04/16 06:21:31;;;;;;;;;;;10.40;97.40;;;;;;4989553;28;20676;-68
2022/04/16 06:23:59;;;;;;;;;;;10.40;97.40;;;;;;4990430;28;19993;-69
2022/04/16 06:26:26;;;;;;;;;;;10.50;97.50;;;;;;4986023;28;19933;-67
2022/04/16 06:28:53;;;;;;;;;;;10.50;97.20;;;;;;4980124;28;19933;-67
2022/04/16 06:31:21;;;;;;;;;;;10.40;97.00;;;;;;4989070;28;20518;-67
2022/04/16 06:33:48;;;;;;;;;;;10.50;97.20;;;;;;4989570;28;19933;-67
2022/04/16 06:36:16;;;;;;;;;;;10.50;96.80;;;;;;4988219;28;20305;-67
2022/04/16 06:38:43;;;;;;;;;;;10.70;97.10;;;;;;4990702;28;19939;-67
2022/04/16 06:41:10;;;;;;;;;;;10.80;95.90;;;;;;4988409;28;19933;-67
2022/04/16 06:43:38;;;;;;;;;;;10.90;95.40;;;;;;5004681;28;19939;-67
2022/04/16 06:46:07;;;;;;;;;;;10.90;95.50;;;;;;5002754;28;20877;-68
2022/04/16 06:48:34;;;;;;;;;;;10.90;95.30;;;;;;4989193;28;19941;-67
2022/04/16 06:51:01;;;;;;;;;;;11.00;95.40;;;;;;5004615;28;19950;-67
2022/04/16 06:53:29;;;;;;;;;;;11.10;95.20;;;;;;4988851;28;19933;-67
2022/04/16 06:56:00;;;;;;;;;;;11.30;93.90;;;;;;4989185;28;19972;-67
2022/04/16 06:58:28;;;;;;;;;;;11.40;93.90;;;;;;4990006;28;20438;-67
2022/04/16 07:00:57;;;;;;;;;;;11.40;93.50;;;;;;4985366;28;20035;-66
2022/04/16 07:03:24;;;;;;;;;;;11.40;93.30;;;;;;4991112;28;19939;-66
2022/04/16 07:05:52;;;;;;;;;;;11.60;93.20;;;;;;4987621;28;19966;-66
2022/04/16 07:08:19;;;;;;;;;;;11.90;92.50;;;;;;5002504;28;19941;-66
2022/04/16 07:10:51;;;;;;;;;;;11.90;91.70;;;;;;4989500;28;19973;-66
2022/04/16 07:13:18;;;;;;;;;;;11.60;92.10;;;;;;4988774;28;19933;-66
2022/04/16 07:15:45;;;;;;;;;;;11.70;92.50;;;;;;4988610;28;19940;-66
2022/04/16 07:18:12;;;;;;;;;;;11.80;92.30;;;;;;4989555;28;22143;-67
2022/04/16 07:20:40;;;;;;;;;;;11.70;92.20;;;;;;4986904;28;19940;-66
2022/04/16 07:23:07;;;;;;;;;;;11.70;92.10;;;;;;5002698;28;20001;-67
2022/04/16 07:25:35;;;;;;;;;;;12.00;91.60;;;;;;4988874;28;20411;-67
2022/04/16 07:28:01;;;;;;;;;;;12.20;91.80;;;;;;4988784;28;21217;-68
2022/04/16 07:30:28;;;;;;;;;;;12.20;91.10;;;;;;4970204;28;21041;-67
2022/04/16 07:32:55;;;;;;;;;;;12.00;91.10;;;;;;4992611;28;19933;-67
2022/04/16 07:35:27;;;;;;;;;;;11.80;90.90;;;;;;4985042;28;19943;-67
2022/04/16 07:37:58;;;;;;;;;;;11.90;91.60;;;;;;4988194;28;20118;-68
2022/04/16 07:40:25;;;;;;;;;;;11.70;91.10;;;;;;4987338;28;19932;-67
2022/04/16 07:42:52;;;;;;;;;;;11.80;91.20;;;;;;4986226;28;19933;-67
2022/04/16 07:45:21;;;;;;;;;;;11.90;91.50;;;;;;4985068;28;20075;-66
2022/04/16 07:47:48;;;;;;;;;;;12.10;91.30;;;;;;4987150;28;20708;-67
2022/04/16 07:50:16;;;;;;;;;;;12.10;90.50;;;;;;4995199;28;20000;-67
2022/04/16 07:52:44;;;;;;;;;;;12.20;90.80;;;;;;5000889;28;19940;-67
2022/04/16 07:55:13;;;;;;;;;;;12.20;90.60;;;;;;4986935;28;19939;-67
2022/04/16 07:57:40;;;;;;;;;;;12.30;90.30;;;;;;4987489;28;19987;-68
2022/04/16 08:00:08;;;;;;;;;;;12.40;90.00;;;;;;4987781;28;20007;-67
2022/04/16 08:02:38;;;;;;;;;;;12.50;89.20;;;;;;4987149;28;19974;-67
2022/04/16 08:05:05;;;;;;;;;;;12.50;88.60;;;;;;4979083;28;19958;-67
2022/04/16 08:07:33;;;;;;;;;;;12.60;88.70;;;;;;4992494;28;20408;-68
2022/04/16 08:09:59;;;;;;;;;;;12.70;88.60;;;;;;4992781;28;20989;-67
2022/04/16 08:12:26;;;;;;;;;;;12.90;88.30;;;;;;5005167;28;19932;-67
2022/04/16 08:14:53;;;;;;;;;;;13.00;86.60;;;;;;4992238;28;19940;-67
2022/04/16 08:17:20;;;;;;;;;;;13.30;85.00;;;;;;4990663;28;19932;-68
2022/04/16 08:19:47;;;;;;;;;;;13.40;85.00;;;;;;4988160;28;19933;-67
2022/04/16 08:22:18;;;;;;;;;;;13.30;84.60;;;;;;4992390;28;19933;-67
2022/04/16 08:24:54;;;;;;;;;;;13.00;85.30;;;;;;4998727;28;19933;-67
2022/04/16 08:27:22;;;;;;;;;;;13.00;85.40;;;;;;4993516;28;19962;-67
2022/04/16 08:29:49;;;;;;;;;;;13.00;85.30;;;;;;4989562;28;20704;-68
2022/04/16 08:32:16;;;;;;;;;;;13.00;86.00;;;;;;4977615;28;22301;-67
2022/04/16 08:34:50;;;;;;;;;;;13.20;85.20;;;;;;5007948;28;19980;-67
2022/04/16 08:37:18;;;;;;;;;;;13.20;82.50;;;;;;4991693;28;19975;-67
2022/04/16 08:39:45;;;;;;;;;;;13.30;82.40;;;;;;4991048;28;19933;-67
2022/04/16 08:42:13;;;;;;;;;;;13.60;82.20;;;;;;4990867;28;22447;-68
2022/04/16 08:44:40;;;;;;;;;;;13.80;80.40;;;;;;4998111;28;19933;-67
2022/04/16 08:47:08;;;;;;;;;;;13.70;80.40;;;;;;4989630;28;19967;-68
2022/04/16 08:49:36;;;;;;;;;;;13.70;81.30;;;;;;4988792;28;20122;-67
2022/04/16 08:52:04;;;;;;;;;;;13.70;79.10;;;;;;4987594;28;19932;-67
2022/04/16 08:54:31;;;;;;;;;;;13.60;79.30;;;;;;4993081;28;19972;-68
2022/04/16 08:56:59;;;;;;;;;;;13.40;79.90;;;;;;4992214;28;21371;-67
2022/04/16 08:59:26;;;;;;;;;;;13.30;79.20;;;;;;4990183;28;20194;-67
2022/04/16 09:01:53;;;;;;;;;;;13.30;79.70;;;;;;5005274;28;19940;-68
2022/04/16 09:04:20;;;;;;;;;;;13.20;79.50;;;;;;4997280;28;19933;-68
2022/04/16 09:06:58;;;;;;;;;;;13.20;79.80;;;;;;4992031;28;19941;-68
2022/04/16 09:09:25;;;;;;;;;;;13.10;79.70;;;;;;4988692;28;19933;-68
2022/04/16 09:11:52;;;;;;;;;;;13.00;79.40;;;;;;4992026;28;19933;-67
2022/04/16 09:14:19;;;;;;;;;;;13.00;79.00;;;;;;4992312;28;19940;-67
2022/04/16 09:16:46;;;;;;;;;;;13.10;80.70;;;;;;4990469;28;20021;-67
2022/04/16 09:19:17;;;;;;;;;;;13.10;79.60;;;;;;4998294;28;19940;-67
2022/04/16 09:21:44;;;;;;;;;;;13.00;79.30;;;;;;4997760;28;20651;-68
2022/04/16 09:24:12;;;;;;;;;;;13.00;79.40;;;;;;4989243;28;19933;-68
2022/04/16 09:26:40;;;;;;;;;;;13.00;80.00;;;;;;4985938;28;22668;-68
2022/04/16 09:29:10;;;;;;;;;;;13.00;78.40;;;;;;4989785;28;19940;-67
2022/04/16 09:31:38;;;;;;;;;;;13.00;78.70;;;;;;4989597;28;19936;-67
2022/04/16 09:34:06;;;;;;;;;;;13.20;78.50;;;;;;4987471;28;19932;-67
2022/04/16 09:36:38;;;;;;;;;;;13.30;77.80;;;;;;4987627;28;19940;-67
2022/04/16 09:39:06;;;;;;;;;;;13.40;78.30;;;;;;4986750;28;19932;-68
2022/04/16 09:41:36;;;;;;;;;;;13.20;77.50;;;;;;4988551;28;19933;-67
2022/04/16 09:44:03;;;;;;;;;;;13.30;77.30;;;;;;4987375;28;19933;-67
2022/04/16 09:46:31;;;;;;;;;;;13.30;78.20;;;;;;4992198;28;19933;-67
2022/04/16 09:49:02;;;;;;;;;;;13.20;77.10;;;;;;4985435;28;21017;-68
2022/04/16 09:51:36;;;;;;;;;;;13.20;78.80;;;;;;4988992;28;22600;-68
2022/04/16 09:54:05;;;;;;;;;;;13.20;78.00;;;;;;5003153;28;22295;-68
2022/04/16 09:56:41;;;;;;;;;;;13.10;80.60;;;;;;4994651;28;20071;-67
2022/04/16 09:59:09;;;;;;;;;;;13.00;81.90;;;;;;4988728;28;19933;-67
2022/04/16 10:01:39;;;;;;;;;;;12.80;85.00;;;;;;4982029;28;19933;-67
2022/04/16 10:04:06;;;;;;;;;;;12.80;88.10;;;;;;4986133;28;19932;-69
2022/04/16 10:06:33;;;;;;;;;;;12.70;91.00;;;;;;4986545;28;20055;-67
2022/04/16 10:09:13;;;;;;;;;;;12.50;90.80;;;;;;4983022;28;19933;-68
2022/04/16 10:12:59;;;;;;;;;;;12.60;92.00;;;;;;4982414;28;19933;-68
2022/04/16 10:15:00;;;;;;;;;;;12.70;91.80;;;;;;4982331;28;19933;-68
2022/04/16 10:17:27;;;;;;;;;;;12.80;92.20;;;;;;4970296;28;20701;-68
2022/04/16 10:20:04;;;;;;;;;;;12.90;90.50;;;;;;4987433;28;19987;-68
2022/04/16 10:22:31;;;;;;;;;;;13.00;90.70;;;;;;4984834;28;19940;-68
2022/04/16 10:24:58;;;;;;;;;;;13.20;90.40;;;;;;4984020;28;19933;-67
2022/04/16 10:27:26;;;;;;;;;;;13.40;90.40;;;;;;4982737;28;19979;-67
2022/04/16 10:30:00;;;;;;;;;;;13.50;90.50;;;;;;4982682;28;22455;-68
2022/04/16 10:32:28;;;;;;;;;;;13.60;90.70;;;;;;4990176;28;19933;-67
2022/04/16 10:35:04;;;;;;;;;;;13.80;88.10;;;;;;4971324;28;19933;-67
2022/04/16 10:37:41;;;;;;;;;;;13.80;82.50;;;;;;4989841;28;20031;-66
2022/04/16 10:40:20;;;;;;;;;;;13.90;85.30;;;;;;4988084;28;19979;-68
2022/04/16 10:42:51;;;;;;;;;;;14.10;87.00;;;;;;4985085;28;19960;-69
2022/04/16 10:45:20;;;;;;;;;;;14.10;83.40;;;;;;4983891;28;20110;-68
2022/04/16 10:47:49;;;;;;;;;;;14.00;85.90;;;;;;4983640;28;20616;-68
2022/04/16 10:50:18;;;;;;;;;;;14.20;86.40;;;;;;4988311;28;19933;-68
2022/04/16 10:52:59;;;;;;;;;;;14.30;85.50;;;;;;4984289;28;19932;-68
2022/04/16 10:55:32;;;;;;;;;;;14.40;82.20;;;;;;4985494;28;19933;-69
2022/04/16 10:58:01;;;;;;;;;;;14.50;82.80;;;;;;4972837;28;20086;-68
2022/04/16 11:00:40;;;;;;;;;;;14.60;85.40;;;;;;5002321;28;20083;-68
2022/04/16 11:03:08;;;;;;;;;;;14.40;78.40;;;;;;4984399;28;20716;-68
2022/04/16 11:05:36;;;;;;;;;;;14.20;78.80;;;;;;5002641;28;19939;-68
2022/04/16 11:08:06;;;;;;;;;;;14.10;76.00;;;;;;4976060;28;19969;-68
2022/04/16 11:10:33;;;;;;;;;;;14.20;80.10;;;;;;4992437;28;20588;-67
2022/04/16 11:13:01;;;;;;;;;;;14.40;80.60;;;;;;4989026;28;19986;-68
2022/04/16 11:15:29;;;;;;;;;;;14.40;79.70;;;;;;5002761;28;19933;-68
2022/04/16 11:17:56;;;;;;;;;;;14.50;78.60;;;;;;4983437;28;19932;-68
2022/04/16 11:20:25;;;;;;;;;;;14.60;77.70;;;;;;4986946;28;20368;-68
2022/04/16 11:22:53;;;;;;;;;;;14.90;78.00;;;;;;4988374;28;20763;-68
2022/04/16 11:25:24;;;;;;;;;;;15.10;78.70;;;;;;4986965;28;19940;-67
2022/04/16 11:36:12;;;;;;;;;;;14.80;75.30;;;;;;4988848;28;19933;-68
2022/04/16 11:38:40;;;;;;;;;;;14.60;74.40;;;;;;4986574;28;19989;-71
2022/04/16 11:41:08;;;;;;;;;;;14.30;77.20;;;;;;4985903;28;19936;-68
2022/04/16 11:43:38;;;;;;;;;;;14.30;76.30;;;;;;4978720;28;19979;-71
2022/04/16 11:46:13;;;;;;;;;;;14.20;75.50;;;;;;4985446;28;21219;-68
2022/04/16 11:48:44;;;;;;;;;;;14.00;76.10;;;;;;4985433;28;19940;-69
2022/04/16 11:51:12;;;;;;;;;;;13.90;78.40;;;;;;4983672;28;19944;-68
2022/04/16 11:53:43;;;;;;;;;;;13.80;79.00;;;;;;4986234;28;20077;-68
2022/04/16 11:56:10;;;;;;;;;;;13.60;79.80;;;;;;4969545;28;22296;-67
2022/04/16 11:58:37;;;;;;;;;;;13.00;86.10;;;;;;4988504;28;19933;-69
2022/04/16 12:01:04;;;;;;;;;;;12.50;91.00;;;;;;4982318;28;19975;-68
2022/04/16 12:03:36;;;;;;;;;;;12.20;95.20;;;;;;4980299;28;21599;-68
2022/04/16 12:06:07;;;;;;;;;;;12.10;97.00;;;;;;4985379;28;19932;-68
2022/04/16 12:08:34;;;;;;;;;;;12.30;97.90;;;;;;4985640;28;19940;-68
2022/04/16 12:11:02;;;;;;;;;;;12.40;99.10;;;;;;4983114;28;22501;-67
2022/04/16 12:13:39;;;;;;;;;;;12.50;96.80;;;;;;4989717;28;19992;-68
2022/04/16 12:16:07;;;;;;;;;;;12.40;97.40;;;;;;4984905;28;20126;-68
2022/04/16 12:18:46;;;;;;;;;;;12.50;97.10;;;;;;4976356;28;19939;-67
2022/04/16 12:21:14;;;;;;;;;;;12.50;97.10;;;;;;4985181;28;19939;-67
2022/04/16 12:23:43;;;;;;;;;;;12.50;97.20;;;;;;4984458;28;20024;-68
2022/04/16 12:26:15;;;;;;;;;;;12.50;97.80;;;;;;4989198;28;19933;-68
2022/04/16 12:28:43;;;;;;;;;;;12.80;98.70;;;;;;4986946;28;19991;-68
2022/04/16 12:31:11;;;;;;;;;;;12.90;97.50;;;;;;4989889;28;19948;-68
2022/04/16 12:33:38;;;;;;;;;;;12.90;97.00;;;;;;4999724;28;19939;-67
2022/04/16 12:36:06;;;;;;;;;;;13.10;94.80;;;;;;4984931;28;19940;-68
2022/04/16 12:38:33;;;;;;;;;;;13.00;95.20;;;;;;4983883;28;19933;-68
2022/04/16 12:41:08;;;;;;;;;;;13.00;96.80;;;;;;5000953;28;21060;-68
2022/04/16 12:43:36;;;;;;;;;;;13.10;96.00;;;;;;4979284;28;19932;-68
2022/04/16 12:46:03;;;;;;;;;;;13.50;94.20;;;;;;4982200;28;19933;-68
2022/04/16 12:48:30;;;;;;;;;;;13.70;92.70;;;;;;4986732;28;19933;-69
2022/04/16 12:50:57;;;;;;;;;;;14.10;90.90;;;;;;4987759;28;20068;-68
2022/04/16 12:53:25;;;;;;;;;;;14.60;90.50;;;;;;5008912;28;20014;-68
2022/04/16 12:55:52;;;;;;;;;;;14.60;83.80;;;;;;5004111;28;19940;-69
2022/04/16 12:58:19;;;;;;;;;;;14.60;83.60;;;;;;4990204;28;20146;-70
2022/04/16 13:00:46;;;;;;;;;;;14.40;85.40;;;;;;4985543;28;19933;-69
2022/04/16 13:03:14;;;;;;;;;;;14.30;82.70;;;;;;4986952;28;19973;-69
2022/04/16 13:05:41;;;;;;;;;;;14.50;84.50;;;;;;4990457;28;20714;-68
2022/04/16 13:08:08;;;;;;;;;;;14.60;83.40;;;;;;4979452;28;19990;-68
2022/04/16 13:10:35;;;;;;;;;;;14.50;78.40;;;;;;4993207;28;19983;-68
2022/04/16 13:13:04;;;;;;;;;;;14.40;80.80;;;;;;4995268;28;19933;-67
2022/04/16 13:15:32;;;;;;;;;;;14.50;81.50;;;;;;4991512;28;20042;-68
2022/04/16 13:17:59;;;;;;;;;;;14.40;80.60;;;;;;4995031;28;19955;-67
2022/04/16 13:20:26;;;;;;;;;;;14.40;81.30;;;;;;4988003;28;19933;-68
2022/04/16 13:22:53;;;;;;;;;;;14.50;81.10;;;;;;4986802;28;19933;-67
2022/04/16 13:25:21;;;;;;;;;;;14.50;81.50;;;;;;4973583;28;19932;-68
2022/04/16 13:27:48;;;;;;;;;;;14.50;78.20;;;;;;4989349;28;19956;-68
2022/04/16 13:30:15;;;;;;;;;;;14.30;76.60;;;;;;4990061;28;19933;-67
2022/04/16 13:32:42;;;;;;;;;;;14.20;78.60;;;;;;4987818;28;22313;-68
2022/04/16 13:35:09;;;;;;;;;;;14.20;79.80;;;;;;4990494;28;19981;-67
2022/04/16 13:37:36;;;;;;;;;;;14.00;84.10;;;;;;4988717;28;19933;-68
2022/04/16 13:42:49;;;;;;;;;;;13.60;90.20;;;;;;4992538;28;19940;-68
2022/04/16 13:45:16;;;;;;;;;;;13.50;91.60;;;;;;4994180;28;20020;-68
2022/04/16 13:47:42;;;;;;;;;;;13.50;91.50;;;;;;4986507;28;20930;-69
2022/04/16 13:50:10;;;;;;;;;;;13.50;92.00;;;;;;4986402;28;19940;-69
2022/04/16 13:52:37;;;;;;;;;;;13.50;92.20;;;;;;4986525;28;19933;-68
2022/04/16 13:55:06;;;;;;;;;;;13.40;91.20;;;;;;4989834;28;19940;-67
2022/04/16 13:57:33;;;;;;;;;;;13.30;91.00;;;;;;4990525;28;19940;-68
2022/04/16 14:00:00;;;;;;;;;;;13.20;91.70;;;;;;4992520;28;20128;-67
2022/04/16 14:02:37;;;;;;;;;;;13.10;92.30;;;;;;4985925;28;22191;-67
2022/04/16 14:07:50;;;;;;;;;;;12.90;93.50;;;;;;4994531;28;20399;-67
2022/04/16 14:10:17;;;;;;;;;;;12.90;92.70;;;;;;4983341;28;19933;-67
2022/04/16 14:12:45;;;;;;;;;;;12.80;92.50;;;;;;4989651;28;20055;-68
2022/04/16 14:15:13;;;;;;;;;;;12.80;92.70;;;;;;4989805;28;19937;-68
2022/04/16 14:17:40;;;;;;;;;;;12.80;93.10;;;;;;4988857;28;20050;-67
2022/04/16 14:20:08;;;;;;;;;;;12.70;92.90;;;;;;4988374;28;20028;-67
2022/04/16 14:22:36;;;;;;;;;;;12.70;93.20;;;;;;4988842;28;20679;-68
2022/04/16 14:25:03;;;;;;;;;;;12.60;93.80;;;;;;4989373;28;20008;-68
2022/04/16 14:27:32;;;;;;;;;;;12.60;94.10;;;;;;4977755;28;20139;-68
2022/04/16 14:29:59;;;;;;;;;;;12.60;94.00;;;;;;4981545;28;22410;-68
2022/04/16 14:32:27;;;;;;;;;;;12.60;94.10;;;;;;4987981;28;19939;-68
2022/04/16 14:34:54;;;;;;;;;;;12.70;94.70;;;;;;4976874;28;22331;-68
2022/04/16 14:37:21;;;;;;;;;;;12.70;94.70;;;;;;5002286;28;19940;-68
2022/04/16 14:39:48;;;;;;;;;;;12.70;95.10;;;;;;4980101;28;20738;-67
2022/04/16 14:42:15;;;;;;;;;;;12.50;95.20;;;;;;4986132;28;19933;-68
2022/04/16 14:44:51;;;;;;;;;;;12.40;96.30;;;;;;4989148;28;19933;-68
2022/04/16 14:47:18;;;;;;;;;;;12.40;96.80;;;;;;4985643;28;19939;-67
2022/04/16 14:49:46;;;;;;;;;;;12.30;98.20;;;;;;4983322;28;20063;-68